Time;durP1;ratioP1;P1;durP2;ratioP2;P2;SDS_P1;SDS_P2;PMS_P1;PMS_P2;Temp;Humidity;BMP_temperature;BMP_pressure;BME280_temperature;BME280_humidity;BME280_pressure;Samples;Min_cycle;Max_cycle;Signal;HPM_P1;HPM_P2
2021/10/01 00:02:07;;;;;;;6.97;1.75;;;10.30;99.90;;;;;;5013883;28;20073;-83
2021/10/01 00:04:34;;;;;;;6.45;2.03;;;10.30;99.90;;;;;;5010093;28;20130;-83
2021/10/01 00:07:01;;;;;;;3.13;1.70;;;10.30;99.90;;;;;;5011956;28;20569;-83
2021/10/01 00:09:28;;;;;;;10.60;2.72;;;10.30;99.90;;;;;;5012629;28;20045;-83
2021/10/01 00:11:55;;;;;;;7.32;2.15;;;10.20;99.90;;;;;;5013071;28;20081;-83
2021/10/01 00:14:24;;;;;;;7.53;2.13;;;10.20;99.90;;;;;;5009574;28;20140;-83
2021/10/01 00:16:53;;;;;;;6.95;1.80;;;10.20;99.90;;;;;;5017778;28;20129;-83
2021/10/01 00:19:21;;;;;;;8.68;2.00;;;10.30;99.90;;;;;;5009656;28;20159;-83
2021/10/01 00:21:48;;;;;;;4.13;2.03;;;10.20;99.90;;;;;;5012211;28;20133;-83
2021/10/01 00:24:15;;;;;;;11.40;2.65;;;10.20;99.90;;;;;;5011896;28;20054;-83
2021/10/01 00:26:43;;;;;;;11.23;2.17;;;10.20;99.90;;;;;;5006608;28;20680;-83
2021/10/01 00:29:10;;;;;;;8.95;1.80;;;10.30;99.90;;;;;;5011023;28;20053;-83
2021/10/01 00:31:38;;;;;;;8.35;2.03;;;10.30;99.90;;;;;;5013997;28;20084;-82
2021/10/01 00:34:06;;;;;;;8.82;1.98;;;10.30;99.90;;;;;;5025016;28;20100;-83
2021/10/01 00:36:33;;;;;;;8.55;2.28;;;10.20;99.90;;;;;;5011355;28;20069;-83
2021/10/01 00:39:00;;;;;;;8.48;1.90;;;10.20;99.90;;;;;;5011102;28;20085;-83
2021/10/01 00:41:27;;;;;;;14.90;2.47;;;10.20;99.90;;;;;;5007581;28;20053;-82
2021/10/01 00:43:54;;;;;;;11.38;1.92;;;10.20;99.90;;;;;;5013276;28;20050;-83
2021/10/01 00:46:22;;;;;;;11.98;3.15;;;10.30;99.90;;;;;;5012798;28;20554;-83
2021/10/01 00:48:49;;;;;;;10.20;1.83;;;10.20;99.90;;;;;;5010129;28;20053;-83
2021/10/01 00:51:16;;;;;;;12.43;1.88;;;10.40;99.90;;;;;;5011996;28;20566;-83
2021/10/01 00:53:44;;;;;;;4.72;2.03;;;10.30;99.90;;;;;;5012358;28;20070;-83
2021/10/01 00:56:12;;;;;;;6.95;2.00;;;10.30;99.90;;;;;;5011708;28;20140;-83
2021/10/01 00:58:38;;;;;;;5.97;1.98;;;10.30;99.90;;;;;;5008178;28;20902;-83
2021/10/01 01:01:11;;;;;;;3.67;1.80;;;10.30;99.90;;;;;;5009603;28;20096;-83
2021/10/01 01:03:44;;;;;;;4.63;1.90;;;10.20;99.90;;;;;;5012873;28;20053;-83
2021/10/01 01:06:56;;;;;;;11.57;2.20;;;10.20;99.90;;;;;;4992394;28;20085;-83
2021/10/01 01:09:27;;;;;;;8.55;1.88;;;10.20;99.90;;;;;;4997191;28;20112;-83
2021/10/01 01:12:09;;;;;;;8.10;3.63;;;10.30;99.90;;;;;;5009692;28;20089;-83
2021/10/01 01:14:43;;;;;;;6.72;1.95;;;10.20;99.90;;;;;;5005455;28;20602;-83
2021/10/01 01:17:21;;;;;;;7.60;1.90;;;10.30;99.90;;;;;;4999096;28;20045;-83
2021/10/01 01:20:03;;;;;;;8.50;3.00;;;10.30;99.90;;;;;;5011879;28;20134;-83
2021/10/01 01:22:47;;;;;;;5.75;1.98;;;10.20;99.90;;;;;;5009421;28;20096;-83
2021/10/01 01:25:36;;;;;;;6.60;1.70;;;10.20;99.90;;;;;;5004970;28;20104;-83
2021/10/01 01:28:42;;;;;;;5.78;1.90;;;10.20;99.90;;;;;;5005488;28;20069;-84
2021/10/01 01:31:37;;;;;;;14.38;1.83;;;10.20;99.90;;;;;;4987068;28;20074;-84
2021/10/01 01:34:06;;;;;;;7.47;1.80;;;10.20;99.90;;;;;;4993114;28;20112;-85
2021/10/01 01:36:34;;;;;;;10.55;2.25;;;10.30;99.90;;;;;;5003217;28;20121;-85
2021/10/01 01:39:05;;;;;;;12.57;1.98;;;10.30;99.90;;;;;;5016471;28;20049;-85
2021/10/01 01:41:33;;;;;;;5.85;1.85;;;10.20;99.90;;;;;;5027763;28;20410;-85
2021/10/01 01:44:01;;;;;;;6.10;2.28;;;10.20;99.90;;;;;;5006921;28;20046;-84
2021/10/01 01:46:28;;;;;;;8.63;2.22;;;10.20;99.90;;;;;;5003704;28;20593;-84
2021/10/01 01:48:56;;;;;;;6.75;2.08;;;10.20;99.90;;;;;;5026604;28;20057;-85
2021/10/01 01:51:24;;;;;;;7.63;1.90;;;10.20;99.90;;;;;;5011028;28;20080;-84
2021/10/01 01:53:51;;;;;;;7.72;1.80;;;10.20;99.90;;;;;;5011987;28;20164;-84
2021/10/01 01:56:19;;;;;;;8.90;1.88;;;10.10;99.90;;;;;;5010452;28;20770;-84
2021/10/01 01:58:47;;;;;;;6.10;2.25;;;10.10;99.90;;;;;;5007780;28;20514;-83
2021/10/01 02:01:14;;;;;;;8.30;1.80;;;10.10;99.90;;;;;;5026666;28;20124;-84
2021/10/01 02:03:42;;;;;;;9.05;2.55;;;10.10;99.90;;;;;;5007258;28;20061;-84
2021/10/01 02:06:11;;;;;;;7.43;1.95;;;10.10;99.90;;;;;;5011480;28;20062;-84
2021/10/01 02:08:39;;;;;;;7.93;1.98;;;10.10;99.90;;;;;;5006519;28;20050;-84
2021/10/01 02:11:07;;;;;;;12.43;1.80;;;10.20;99.90;;;;;;4991069;28;20046;-84
2021/10/01 02:13:35;;;;;;;7.63;1.88;;;10.20;99.90;;;;;;5008169;28;20137;-84
2021/10/01 02:16:03;;;;;;;8.68;1.90;;;10.20;99.90;;;;;;5026543;28;20501;-83
2021/10/01 02:18:31;;;;;;;8.27;1.95;;;10.10;99.90;;;;;;5007653;28;20082;-84
2021/10/01 02:21:01;;;;;;;3.33;1.73;;;10.10;99.90;;;;;;4992385;28;20046;-84
2021/10/01 02:23:28;;;;;;;9.25;1.88;;;10.10;99.90;;;;;;5003566;28;20056;-83
2021/10/01 02:28:49;;;;;;;10.38;2.30;;;10.00;99.90;;;;;;5002881;28;20132;-84
2021/10/01 02:31:23;;;;;;;6.95;1.85;;;10.00;99.90;;;;;;5011813;28;20136;-84
2021/10/01 02:33:51;;;;;;;6.40;1.73;;;9.90;99.90;;;;;;4991534;28;20058;-83
2021/10/01 02:36:18;;;;;;;5.15;1.50;;;10.00;99.90;;;;;;5002747;28;20050;-83
2021/10/01 02:38:45;;;;;;;5.70;1.65;;;10.00;99.90;;;;;;5023603;28;20077;-83
2021/10/01 02:41:12;;;;;;;6.18;2.20;;;9.90;99.90;;;;;;5010057;28;20133;-83
2021/10/01 02:43:39;;;;;;;7.85;1.70;;;10.00;99.90;;;;;;5009006;28;20056;-83
2021/10/01 02:46:07;;;;;;;3.45;1.42;;;10.00;99.90;;;;;;5009602;28;20050;-83
2021/10/01 02:48:36;;;;;;;3.35;1.38;;;10.10;99.90;;;;;;5006612;28;20054;-83
2021/10/01 02:51:15;;;;;;;5.07;1.83;;;10.10;99.90;;;;;;5008400;28;20099;-83
2021/10/01 02:54:04;;;;;;;4.10;2.55;;;10.10;99.90;;;;;;5010498;28;20144;-83
2021/10/01 02:56:40;;;;;;;8.93;1.60;;;10.10;99.90;;;;;;5009944;28;20050;-83
2021/10/01 02:59:07;;;;;;;;;;;10.00;99.90;;;;;;5009755;28;20521;-83
2021/10/01 03:01:37;;;;;;;9.98;2.10;;;10.10;99.90;;;;;;5010094;28;19976;-82
2021/10/01 03:04:09;;;;;;;7.22;1.45;;;10.00;99.90;;;;;;5010062;28;20046;-83
2021/10/01 03:06:41;;;;;;;4.85;1.80;;;10.10;99.90;;;;;;5009914;28;20127;-82
2021/10/01 03:09:09;;;;;;;9.60;1.70;;;10.00;99.90;;;;;;5013097;28;20057;-83
2021/10/01 03:11:36;;;;;;;2.95;1.73;;;10.00;99.90;;;;;;5007960;28;20096;-83
2021/10/01 03:14:04;;;;;;;6.55;1.88;;;10.10;99.90;;;;;;5013347;28;20073;-82
2021/10/01 03:16:32;;;;;;;8.27;1.48;;;10.00;99.90;;;;;;5005314;28;20077;-84
2021/10/01 03:18:59;;;;;;;6.68;1.65;;;10.10;99.90;;;;;;5005225;28;20054;-83
2021/10/01 03:21:28;;;;;;;8.23;1.83;;;9.90;99.90;;;;;;5013244;28;20133;-83
2021/10/01 03:23:56;;;;;;;7.05;2.10;;;9.90;99.90;;;;;;5027757;28;20109;-83
2021/10/01 03:26:25;;;;;;;3.10;1.70;;;9.90;99.90;;;;;;5013374;28;20573;-83
2021/10/01 03:28:52;;;;;;;12.65;2.03;;;9.90;99.90;;;;;;5012245;28;20514;-83
2021/10/01 03:31:19;;;;;;;6.68;1.92;;;9.80;99.90;;;;;;5009583;28;20133;-83
2021/10/01 03:33:47;;;;;;;7.82;1.90;;;9.80;99.90;;;;;;5029526;28;20053;-83
2021/10/01 03:36:14;;;;;;;12.15;1.92;;;9.80;99.90;;;;;;5012616;28;20077;-83
2021/10/01 03:38:41;;;;;;;6.88;1.95;;;9.80;99.90;;;;;;5003898;28;20144;-83
2021/10/01 03:41:08;;;;;;;4.82;1.80;;;9.70;99.90;;;;;;5013819;28;20092;-83
2021/10/01 03:43:35;;;;;;;7.57;2.15;;;9.70;99.90;;;;;;5013980;28;20125;-83
2021/10/01 03:46:02;;;;;;;12.50;2.13;;;9.60;99.90;;;;;;5002358;28;20434;-83
2021/10/01 03:48:29;;;;;;;5.25;1.90;;;9.50;99.90;;;;;;5000062;28;20074;-83
2021/10/01 03:50:56;;;;;;;4.88;1.80;;;9.50;99.90;;;;;;5029396;28;20049;-83
2021/10/01 03:53:23;;;;;;;5.30;2.10;;;9.50;99.90;;;;;;5002046;28;20082;-83
2021/10/01 03:55:50;;;;;;;3.63;1.48;;;9.60;99.90;;;;;;5012200;28;20046;-84
2021/10/01 03:58:17;;;;;;;6.15;2.17;;;9.50;99.90;;;;;;5006420;28;20093;-83
2021/10/01 04:00:47;;;;;;;13.13;2.38;;;9.60;99.90;;;;;;5012702;28;20128;-83
2021/10/01 04:03:14;;;;;;;5.05;2.28;;;9.60;99.90;;;;;;5029269;28;20050;-83
2021/10/01 04:05:41;;;;;;;9.32;2.00;;;9.70;99.90;;;;;;5009649;28;20081;-84
2021/10/01 04:08:12;;;;;;;4.47;1.50;;;9.80;99.90;;;;;;5001551;28;20137;-84
2021/10/01 04:10:40;;;;;;;4.30;1.77;;;9.70;99.90;;;;;;5008259;28;20077;-84
2021/10/01 04:13:07;;;;;;;7.22;1.80;;;9.70;99.90;;;;;;5011115;28;20117;-84
2021/10/01 04:15:34;;;;;;;5.50;2.10;;;9.80;99.90;;;;;;5011668;28;20103;-84
2021/10/01 04:18:02;;;;;;;5.93;2.08;;;9.70;99.90;;;;;;5006726;28;20129;-84
2021/10/01 04:20:29;;;;;;;6.43;2.17;;;9.70;99.90;;;;;;5011808;28;20076;-83
2021/10/01 04:22:56;;;;;;;6.55;2.17;;;9.70;99.90;;;;;;5003390;28;20054;-83
2021/10/01 04:25:23;;;;;;;4.97;1.67;;;9.70;99.90;;;;;;5005024;28;20534;-84
2021/10/01 04:27:49;;;;;;;6.72;1.90;;;9.70;99.90;;;;;;5007420;28;20149;-84
2021/10/01 04:30:17;;;;;;;8.13;2.22;;;9.70;99.90;;;;;;5004952;28;20156;-83
2021/10/01 04:32:47;;;;;;;9.65;1.60;;;9.60;99.90;;;;;;5007334;28;20133;-84
2021/10/01 04:35:14;;;;;;;5.72;1.80;;;9.60;99.90;;;;;;5006026;28;20175;-84
2021/10/01 04:37:41;;;;;;;7.95;2.03;;;9.60;99.90;;;;;;5004269;28;20150;-84
2021/10/01 04:40:08;;;;;;;8.38;1.75;;;9.50;99.90;;;;;;5008582;28;20056;-84
2021/10/01 04:42:36;;;;;;;8.70;2.25;;;9.40;99.90;;;;;;5009770;28;20108;-84
2021/10/01 04:45:03;;;;;;;3.58;1.63;;;9.50;99.90;;;;;;5009011;28;20129;-84
2021/10/01 04:47:30;;;;;;;6.80;1.73;;;9.50;99.90;;;;;;5005213;28;20054;-84
2021/10/01 04:49:57;;;;;;;8.30;2.30;;;9.50;99.90;;;;;;5010298;28;20096;-83
2021/10/01 04:52:31;;;;;;;10.15;2.40;;;9.50;99.90;;;;;;5009396;28;20132;-84
2021/10/01 04:54:59;;;;;;;8.00;1.95;;;9.50;99.90;;;;;;5008315;28;20555;-85
2021/10/01 04:57:26;;;;;;;5.57;1.65;;;9.40;99.90;;;;;;5011166;28;20495;-88
2021/10/01 04:59:53;;;;;;;8.07;2.53;;;9.50;99.90;;;;;;5006660;28;20081;-86
2021/10/01 05:02:24;;;;;;;11.82;2.25;;;9.50;99.90;;;;;;5020221;28;20082;-86
2021/10/01 05:04:54;;;;;;;7.90;1.80;;;9.50;99.90;;;;;;5031190;28;20053;-87
2021/10/01 05:07:22;;;;;;;8.13;2.15;;;9.50;99.90;;;;;;5009849;28;20050;-85
2021/10/01 05:09:48;;;;;;;9.27;1.83;;;9.60;99.90;;;;;;5005492;28;20070;-87
2021/10/01 05:12:18;;;;;;;6.75;1.65;;;9.60;99.90;;;;;;5008525;28;20077;-86
2021/10/01 05:14:45;;;;;;;4.57;1.85;;;9.60;99.90;;;;;;5011704;28;20084;-85
2021/10/01 05:17:12;;;;;;;7.85;2.00;;;9.70;99.90;;;;;;5005750;28;20628;-87
2021/10/01 05:19:39;;;;;;;6.60;2.33;;;9.70;99.90;;;;;;5011073;28;20058;-88
2021/10/01 05:22:17;;;;;;;10.02;1.90;;;9.70;99.90;;;;;;5011219;28;20143;-86
2021/10/01 05:24:44;;;;;;;14.70;2.20;;;9.70;99.90;;;;;;4995696;28;20061;-86
2021/10/01 05:27:16;;;;;;;14.45;1.90;;;9.80;99.90;;;;;;5009697;28;20077;-85
2021/10/01 05:29:43;;;;;;;6.93;1.63;;;9.80;99.90;;;;;;5003995;28;20049;-84
2021/10/01 05:32:10;;;;;;;4.80;1.60;;;9.80;99.90;;;;;;4998137;28;20535;-83
2021/10/01 05:34:36;;;;;;;10.18;1.98;;;9.90;99.90;;;;;;5010667;28;20071;-82
2021/10/01 05:37:04;;;;;;;32.65;11.93;;;9.80;99.90;;;;;;5000996;28;20153;-86
2021/10/01 05:39:32;;;;;;;11.60;2.13;;;9.90;99.90;;;;;;4999370;28;20078;-87
2021/10/01 05:41:59;;;;;;;10.35;1.85;;;9.80;99.90;;;;;;5003589;28;20045;-88
2021/10/01 05:44:26;;;;;;;9.57;2.30;;;9.90;99.90;;;;;;5010511;28;20495;-88
2021/10/01 05:46:53;;;;;;;8.23;3.58;;;9.90;99.90;;;;;;5011590;28;20285;-87
2021/10/01 05:49:26;;;;;;;4.93;1.85;;;9.90;99.90;;;;;;4992771;28;20141;-87
2021/10/01 05:52:02;;;;;;;5.88;2.15;;;10.00;99.90;;;;;;5008328;28;20081;-88
2021/10/01 05:54:29;;;;;;;8.70;2.05;;;10.00;99.90;;;;;;5010453;28;20730;-88
2021/10/01 05:56:57;;;;;;;10.15;2.40;;;10.00;99.90;;;;;;5010865;28;20092;-88
2021/10/01 05:59:23;;;;;;;11.00;1.95;;;10.10;99.90;;;;;;5026954;28;20100;-88
2021/10/01 06:01:50;;;;;;;20.17;3.33;;;10.10;99.90;;;;;;5006506;28;20189;-88
2021/10/01 06:04:20;;;;;;;6.65;2.08;;;10.10;99.90;;;;;;4998880;28;20061;-88
2021/10/01 06:06:47;;;;;;;4.70;1.63;;;10.20;99.90;;;;;;5011829;28;20097;-88
2021/10/01 06:09:18;;;;;;;9.18;2.22;;;10.30;99.90;;;;;;5010661;28;20046;-88
2021/10/01 06:11:45;;;;;;;7.28;2.10;;;10.20;99.90;;;;;;5012360;28;20180;-88
2021/10/01 06:14:12;;;;;;;9.35;1.80;;;10.30;99.90;;;;;;5010261;28;20077;-87
2021/10/01 06:16:39;;;;;;;4.65;1.55;;;10.30;99.90;;;;;;5011932;28;20220;-88
2021/10/01 06:19:05;;;;;;;4.93;1.75;;;10.40;99.90;;;;;;5008653;28;20050;-87
2021/10/01 06:21:32;;;;;;;5.97;1.73;;;10.40;99.90;;;;;;5008880;28;20507;-87
2021/10/01 06:23:59;;;;;;;6.72;1.58;;;10.50;99.90;;;;;;5010054;28;20133;-88
2021/10/01 06:26:26;;;;;;;5.35;1.40;;;10.50;99.90;;;;;;5012065;28;20089;-88
2021/10/01 06:28:52;;;;;;;7.57;2.40;;;10.60;99.90;;;;;;5009171;28;20133;-88
2021/10/01 06:31:19;;;;;;;11.32;2.05;;;10.70;99.90;;;;;;5007349;28;20109;-87
2021/10/01 06:33:46;;;;;;;5.90;1.52;;;10.70;99.90;;;;;;4992675;28;20046;-89
2021/10/01 06:36:16;;;;;;;4.50;1.50;;;10.70;99.90;;;;;;5026901;28;20085;-89
2021/10/01 06:38:43;;;;;;;8.60;1.90;;;10.70;99.90;;;;;;5010059;28;20088;-88
2021/10/01 06:41:11;;;;;;;4.47;1.50;;;10.80;99.90;;;;;;5026451;28;20050;-88
2021/10/01 06:43:41;;;;;;;10.38;1.90;;;10.80;99.90;;;;;;5010215;28;20065;-88
2021/10/01 06:46:17;;;;;;;6.68;1.98;;;10.80;99.90;;;;;;5009774;28;20046;-88
2021/10/01 06:48:58;;;;;;;3.70;1.27;;;10.90;99.90;;;;;;5005533;28;20054;-88
2021/10/01 07:29:27;;;;;;;4.55;1.40;;;11.70;99.90;;;;;;5009692;28;20104;-88
2021/10/01 08:19:41;;;;;;;6.30;1.85;;;18.50;99.90;;;;;;5002189;28;20129;-89
2021/10/01 08:22:09;;;;;;;6.85;1.70;;;18.40;99.90;;;;;;5013629;28;20053;-89
2021/10/01 08:24:36;;;;;;;4.95;1.30;;;17.70;99.90;;;;;;5021186;28;20112;-89
2021/10/01 08:27:04;;;;;;;6.72;1.77;;;17.20;99.90;;;;;;4998518;28;20085;-88
2021/10/01 08:29:38;;;;;;;5.18;1.40;;;16.60;99.90;;;;;;5021752;28;20050;-88
2021/10/01 08:32:06;;;;;;;3.45;1.20;;;15.40;99.90;;;;;;5005059;28;20774;-88
2021/10/01 08:34:37;;;;;;;3.88;1.23;;;14.40;99.90;;;;;;5003621;28;20141;-88
2021/10/01 08:37:05;;;;;;;16.63;2.42;;;14.30;99.90;;;;;;5011438;28;20145;-88
2021/10/01 08:39:32;;;;;;;6.32;1.10;;;14.30;99.90;;;;;;4995742;28;20082;-88
2021/10/01 08:42:03;;;;;;;4.03;1.23;;;14.10;99.90;;;;;;5013836;28;20075;-88
2021/10/01 08:44:32;;;;;;;5.00;1.50;;;14.40;99.90;;;;;;5011446;28;20084;-88
2021/10/01 08:47:02;;;;;;;3.88;1.27;;;14.70;99.90;;;;;;5010387;28;20133;-88
2021/10/01 08:49:31;;;;;;;6.30;1.40;;;15.00;99.90;;;;;;5008708;28;20549;-88
2021/10/01 08:51:59;;;;;;;9.73;1.45;;;15.60;99.90;;;;;;5010220;28;20076;-88
2021/10/01 08:54:26;;;;;;;7.40;1.80;;;15.50;99.90;;;;;;5007870;28;20881;-88
2021/10/01 08:56:53;;;;;;;11.18;1.58;;;15.40;99.90;;;;;;5009453;28;20069;-88
2021/10/01 08:59:20;;;;;;;6.75;1.63;;;15.70;99.90;;;;;;5008450;28;20136;-88
2021/10/01 09:01:47;;;;;;;8.27;1.73;;;15.40;99.90;;;;;;5007664;28;20133;-88
2021/10/01 09:04:15;;;;;;;5.50;1.45;;;15.10;99.90;;;;;;5007287;28;20072;-88
2021/10/01 09:06:42;;;;;;;9.57;2.80;;;15.20;99.90;;;;;;5008406;28;20081;-88
2021/10/01 09:09:09;;;;;;;6.45;1.52;;;15.30;99.90;;;;;;5006049;28;20108;-88
2021/10/01 09:11:45;;;;;;;8.27;1.58;;;15.20;99.90;;;;;;5007959;28;20092;-88
2021/10/01 09:14:13;;;;;;;;;;;15.70;99.90;;;;;;5008017;28;20704;-88
2021/10/01 09:16:42;;;;;;;15.98;2.03;;;16.50;99.90;;;;;;5009810;28;19991;-89
2021/10/01 09:19:10;;;;;;;4.55;1.20;;;16.60;99.90;;;;;;5010161;28;20484;-89
2021/10/01 09:21:43;;;;;;;5.53;1.35;;;16.70;99.90;;;;;;5011469;28;20069;-89
2021/10/01 09:24:13;;;;;;;4.25;1.10;;;16.30;99.90;;;;;;5005995;28;20076;-88
2021/10/01 09:26:55;;;;;;;5.88;1.52;;;16.00;99.90;;;;;;5007362;28;20841;-88
2021/10/01 09:29:34;;;;;;;4.22;1.50;;;15.70;99.90;;;;;;5007397;28;20073;-89
2021/10/01 09:32:14;;;;;;;5.25;1.40;;;15.60;99.90;;;;;;5010471;28;20073;-89
2021/10/01 09:34:47;;;;;;;3.60;1.98;;;15.70;99.90;;;;;;5008050;28;20689;-89
2021/10/01 09:37:18;;;;;;;7.97;1.27;;;15.80;99.90;;;;;;5009374;28;20074;-89
2021/10/01 09:39:53;;;;;;;6.35;1.30;;;15.90;99.90;;;;;;5001731;28;20125;-89
2021/10/01 09:42:22;;;;;;;;;;;16.10;99.90;;;;;;5009733;28;20132;-89
2021/10/01 09:44:55;;;;;;;4.82;1.13;;;16.70;99.90;;;;;;5010806;28;19925;-90
2021/10/01 09:47:35;;;;;;;3.88;1.60;;;17.30;99.90;;;;;;4995207;28;20678;-89
2021/10/01 09:50:31;;;;;;;4.78;1.08;;;17.50;99.90;;;;;;5008969;28;20741;-89
2021/10/01 09:53:05;;;;;;;8.30;1.58;;;18.20;99.90;;;;;;5009438;28;20042;-90
2021/10/01 09:55:39;;;;;;;2.35;1.00;;;18.30;99.90;;;;;;5002384;28;20077;-90
2021/10/01 09:58:13;;;;;;;4.90;1.60;;;18.10;99.90;;;;;;5007550;28;20100;-88
2021/10/01 10:00:47;;;;;;;5.50;1.33;;;17.80;99.90;;;;;;5010648;28;20149;-89
2021/10/01 10:03:14;;;;;;;7.53;1.20;;;17.10;99.90;;;;;;4999474;28;20308;-89
2021/10/01 10:06:07;;;;;;;5.90;1.75;;;16.80;99.90;;;;;;5009799;28;20129;-89
2021/10/01 10:08:46;;;;;;;5.38;1.50;;;16.80;99.90;;;;;;4999085;28;20080;-86
2021/10/01 10:11:19;;;;;;;4.38;1.20;;;17.00;99.90;;;;;;5005405;28;20798;-89
2021/10/01 10:13:54;;;;;;;8.85;1.60;;;17.40;99.90;;;;;;5010440;28;20042;-89
2021/10/01 10:16:29;;;;;;;1.73;0.90;;;18.00;99.90;;;;;;5000662;28;20057;-88
2021/10/01 10:18:59;;;;;;;7.95;1.52;;;18.50;99.90;;;;;;5008149;28;20073;-90
2021/10/01 10:21:27;;;;;;;3.92;1.10;;;18.70;99.90;;;;;;5011112;28;20081;-89
2021/10/01 10:23:55;;;;;;;10.02;2.00;;;18.10;99.90;;;;;;5008640;28;20077;-89
2021/10/01 10:26:24;;;;;;;4.20;1.30;;;17.90;99.90;;;;;;5009483;28;20049;-89
2021/10/01 10:28:54;;;;;;;5.93;1.40;;;17.80;99.90;;;;;;5015806;28;20077;-90
2021/10/01 10:31:26;;;;;;;6.38;1.40;;;18.30;99.90;;;;;;5009701;28;20136;-89
2021/10/01 10:33:59;;;;;;;16.23;1.40;;;18.50;99.90;;;;;;5010197;28;20096;-90
2021/10/01 10:36:38;;;;;;;4.03;1.38;;;18.30;99.90;;;;;;5010015;28;20050;-89
2021/10/01 10:39:11;;;;;;;6.28;1.65;;;17.80;99.90;;;;;;5008978;28;20069;-89
2021/10/01 10:41:40;;;;;;;5.28;0.90;;;17.70;99.90;;;;;;5009017;28;20080;-88
2021/10/01 10:44:08;;;;;;;5.05;1.05;;;18.00;99.90;;;;;;5009917;28;20133;-88
2021/10/01 10:46:37;;;;;;;4.32;0.95;;;17.90;99.90;;;;;;5009593;28;20049;-89
2021/10/01 10:49:24;;;;;;;7.80;1.02;;;18.00;99.90;;;;;;5009081;28;20052;-88
2021/10/01 10:52:17;;;;;;;10.35;1.17;;;18.10;99.90;;;;;;5019436;28;20073;-89
2021/10/01 10:54:52;;;;;;;7.32;1.48;;;18.50;99.90;;;;;;5012676;28;20104;-89
2021/10/01 10:57:21;;;;;;;5.57;1.35;;;18.70;99.90;;;;;;5009681;28;20045;-90
2021/10/01 10:59:51;;;;;;;4.90;1.20;;;19.00;99.90;;;;;;5010801;28;20573;-90
2021/10/01 11:02:24;;;;;;;3.38;0.90;;;19.00;99.90;;;;;;5010680;28;20100;-89
2021/10/01 11:05:13;;;;;;;5.18;1.42;;;18.50;99.90;;;;;;5011758;28;20764;-88
2021/10/01 11:08:01;;;;;;;5.25;1.88;;;18.60;99.90;;;;;;4991607;28;20833;-89
2021/10/01 11:10:40;;;;;;;4.85;1.80;;;18.60;99.90;;;;;;5018709;28;20054;-88
2021/10/01 11:13:22;;;;;;;6.07;1.20;;;18.30;99.90;;;;;;5017081;28;20487;-88
2021/10/01 11:16:07;;;;;;;2.50;1.20;;;18.10;99.90;;;;;;5004601;28;20081;-89
2021/10/01 11:18:58;;;;;;;7.10;1.58;;;17.70;99.90;;;;;;5002601;28;20129;-88
2021/10/01 11:21:25;;;;;;;7.55;1.42;;;17.50;99.90;;;;;;5006468;28;20141;-89
2021/10/01 11:23:56;;;;;;;8.10;1.80;;;17.50;99.90;;;;;;5008050;28;20136;-88
2021/10/01 11:26:29;;;;;;;6.28;1.38;;;17.50;99.90;;;;;;5008593;28;20065;-88
2021/10/01 11:28:55;;;;;;;5.03;0.98;;;17.60;99.90;;;;;;5004677;28;20140;-88
2021/10/01 11:31:22;;;;;;;4.53;1.33;;;17.70;99.90;;;;;;5006612;28;20046;-88
2021/10/01 11:33:51;;;;;;;5.20;1.10;;;18.00;99.90;;;;;;5008194;28;20834;-90
2021/10/01 11:36:25;;;;;;;6.65;1.10;;;18.80;99.90;;;;;;5010742;28;20136;-89
2021/10/01 11:39:21;;;;;;;9.73;1.55;;;19.60;99.90;;;;;;5019492;28;20141;-89
2021/10/01 11:41:48;;;;;;;2.05;0.80;;;19.40;99.90;;;;;;5006653;28;20542;-89
2021/10/01 11:44:16;;;;;;;5.18;1.20;;;19.60;99.90;;;;;;5007921;28;20054;-89
2021/10/01 11:46:46;;;;;;;5.82;0.93;;;20.10;99.90;;;;;;5009528;28;20439;-89
2021/10/01 11:49:22;;;;;;;3.80;1.00;;;20.50;99.90;;;;;;5006244;28;20141;-89
2021/10/01 11:52:05;;;;;;;11.30;1.65;;;20.80;99.90;;;;;;5006501;28;20498;-89
2021/10/01 11:54:32;;;;;;;3.85;0.90;;;20.80;99.90;;;;;;5019646;28;20078;-88
2021/10/01 11:57:01;;;;;;;5.80;1.73;;;20.70;99.90;;;;;;4995091;28;20073;-89
2021/10/01 11:59:52;;;;;;;5.03;1.48;;;21.20;99.90;;;;;;5005710;28;20191;-89
2021/10/01 12:02:49;;;;;;;4.00;1.10;;;21.30;99.90;;;;;;5006133;28;20081;-89
2021/10/01 12:05:33;;;;;;;4.40;1.23;;;21.30;99.90;;;;;;5000089;28;20057;-89
2021/10/01 12:08:08;;;;;;;3.85;1.30;;;21.20;99.90;;;;;;5004353;28;20054;-89
2021/10/01 12:10:44;;;;;;;6.43;1.60;;;20.80;99.90;;;;;;5021385;28;20124;-89
2021/10/01 12:13:33;;;;;;;6.18;1.50;;;21.10;99.90;;;;;;5020877;28;20045;-89
2021/10/01 12:16:10;;;;;;;4.95;1.00;;;20.80;99.90;;;;;;5011272;28;20081;-88
2021/10/01 12:18:39;;;;;;;5.07;1.02;;;19.80;99.90;;;;;;4996220;28;20050;-89
2021/10/01 12:21:14;;;;;;;5.00;1.40;;;19.50;99.90;;;;;;5027711;28;20129;-88
2021/10/01 12:23:56;;;;;;;3.25;1.20;;;19.50;99.90;;;;;;5011919;28;20108;-88
2021/10/01 12:26:33;;;;;;;4.43;1.40;;;19.10;99.90;;;;;;5006088;28;20074;-88
2021/10/01 12:28:59;;;;;;;5.78;0.95;;;19.10;99.90;;;;;;5013759;28;20143;-88
2021/10/01 12:31:31;;;;;;;2.50;0.82;;;19.00;99.90;;;;;;5012312;28;20155;-89
2021/10/01 12:33:59;;;;;;;9.88;1.48;;;19.00;99.90;;;;;;5013535;28;20064;-88
2021/10/01 12:36:27;;;;;;;5.13;1.10;;;19.10;99.90;;;;;;5013804;28;20470;-89
2021/10/01 12:38:56;;;;;;;6.90;1.23;;;19.20;99.90;;;;;;5012072;28;20133;-89
2021/10/01 12:41:24;;;;;;;12.23;0.90;;;18.90;99.90;;;;;;5004976;28;20477;-89
2021/10/01 12:43:57;;;;;;;2.70;0.90;;;18.90;99.90;;;;;;5022293;28;20140;-90
2021/10/01 12:46:44;;;;;;;2.45;1.02;;;18.90;99.90;;;;;;5006152;28;20096;-85
2021/10/01 12:49:29;;;;;;;4.07;1.05;;;19.00;99.90;;;;;;5010355;28;20137;-88
2021/10/01 12:52:20;;;;;;;2.78;1.10;;;19.00;99.90;;;;;;5009154;28;20104;-89
2021/10/01 12:55:02;;;;;;;1.65;0.70;;;18.70;99.90;;;;;;5011371;28;20096;-88
2021/10/01 12:57:28;;;;;;;3.67;1.02;;;18.30;99.90;;;;;;5012205;28;20081;-86
2021/10/01 13:00:02;;;;;;;4.05;1.20;;;18.00;99.90;;;;;;5011280;28;20153;-85
2021/10/01 13:02:46;;;;;;;2.03;0.82;;;17.90;99.90;;;;;;5009266;28;20495;-86
2021/10/01 13:05:21;;;;;;;2.22;1.10;;;17.60;99.90;;;;;;5011008;28;20491;-84
2021/10/01 13:07:51;;;;;;;5.35;0.93;;;17.70;99.90;;;;;;5001348;28;20059;-87
2021/10/01 13:10:21;;;;;;;5.05;1.25;;;18.50;99.90;;;;;;5009915;28;20119;-87
2021/10/01 13:12:58;;;;;;;11.65;1.63;;;19.20;99.90;;;;;;5011237;28;20420;-87
2021/10/01 13:15:33;;;;;;;6.65;0.90;;;19.70;99.90;;;;;;5011597;28;20082;-87
2021/10/01 13:18:07;;;;;;;2.55;0.93;;;19.60;99.90;;;;;;5012973;28;20542;-87
2021/10/01 13:20:41;;;;;;;8.10;1.45;;;19.80;99.90;;;;;;5027152;28;20053;-87
2021/10/01 13:23:10;;;;;;;5.25;1.05;;;19.80;99.90;;;;;;5006437;28;20108;-86
2021/10/01 13:25:55;;;;;;;4.68;1.13;;;19.80;99.90;;;;;;5010489;28;20053;-79
2021/10/01 13:28:24;;;;;;;6.70;1.25;;;19.40;99.90;;;;;;5010133;28;20057;-86
2021/10/01 13:30:52;;;;;;;7.30;1.50;;;19.40;99.90;;;;;;5009430;28;20514;-86
2021/10/01 13:33:20;;;;;;;8.73;0.90;;;19.40;99.90;;;;;;5011306;28;20424;-86
2021/10/01 13:35:46;;;;;;;6.28;1.23;;;19.30;99.90;;;;;;5011598;28;20192;-86
2021/10/01 13:38:13;;;;;;;3.97;1.45;;;19.10;99.90;;;;;;5027724;28;20129;-86
2021/10/01 13:40:42;;;;;;;5.50;1.45;;;19.10;99.90;;;;;;5009302;28;20427;-86
2021/10/01 13:43:09;;;;;;;6.00;1.10;;;19.00;99.90;;;;;;5007511;28;20089;-86
2021/10/01 13:45:38;;;;;;;2.83;1.38;;;19.00;99.90;;;;;;5009140;28;20045;-87
2021/10/01 13:48:06;;;;;;;4.57;1.00;;;18.90;99.90;;;;;;5022092;28;20050;-86
2021/10/01 13:50:35;;;;;;;5.72;0.88;;;18.80;99.90;;;;;;5009359;28;20049;-86
2021/10/01 13:53:05;;;;;;;1.02;0.65;;;18.70;99.90;;;;;;5010471;28;20045;-86
2021/10/01 13:55:34;;;;;;;3.70;1.00;;;18.40;99.90;;;;;;5004832;28;20042;-87
2021/10/01 13:58:11;;;;;;;3.55;1.00;;;18.40;99.90;;;;;;5011861;28;20095;-86
2021/10/01 14:00:38;;;;;;;3.20;1.30;;;18.30;99.90;;;;;;5011646;28;20124;-86
2021/10/01 14:03:07;;;;;;;6.47;1.20;;;18.10;99.90;;;;;;5011069;28;20060;-86
2021/10/01 14:05:35;;;;;;;6.97;0.93;;;18.00;99.90;;;;;;5007971;28;20049;-86
2021/10/01 14:08:04;;;;;;;6.05;1.38;;;18.00;99.90;;;;;;5004606;28;20466;-86
2021/10/01 14:10:32;;;;;;;4.30;1.17;;;17.90;99.90;;;;;;5005887;28;20534;-86
2021/10/01 14:13:00;;;;;;;1.95;0.80;;;17.90;99.90;;;;;;5006511;28;20046;-86
2021/10/01 14:15:29;;;;;;;4.53;1.05;;;17.80;99.90;;;;;;5004197;28;20873;-85
2021/10/01 14:17:57;;;;;;;2.92;1.00;;;17.60;99.90;;;;;;5006659;28;20124;-86
2021/10/01 14:20:26;;;;;;;3.28;1.17;;;17.50;99.90;;;;;;5004499;28;20097;-86
2021/10/01 14:22:57;;;;;;;4.82;1.10;;;17.50;99.90;;;;;;5006615;28;20471;-86
2021/10/01 14:25:26;;;;;;;7.78;1.60;;;17.50;99.90;;;;;;5007038;28;20125;-86
2021/10/01 14:27:58;;;;;;;7.97;1.05;;;17.60;99.90;;;;;;5003861;28;20081;-86
2021/10/01 14:30:30;;;;;;;3.15;1.10;;;17.50;99.90;;;;;;5009279;28;20046;-86
2021/10/01 14:33:00;;;;;;;4.00;1.23;;;17.30;99.90;;;;;;5008962;28;20045;-86
2021/10/01 14:35:39;;;;;;;6.25;1.52;;;17.20;99.90;;;;;;5009922;28;20042;-88
2021/10/01 14:38:08;;;;;;;3.05;1.23;;;17.00;99.90;;;;;;5010979;28;20049;-88